createdAt,value
2018-11-22T00:00:55.364Z,73.63
2018-11-22T00:06:17.532Z,73.59
2018-11-22T00:11:40.278Z,73.40
2018-11-22T00:17:02.450Z,73.43
2018-11-22T00:22:24.604Z,73.94
2018-11-22T00:27:46.765Z,74.05
2018-11-22T00:33:08.911Z,73.96
2018-11-22T00:38:31.065Z,73.99
2018-11-22T00:43:53.301Z,74.06
2018-11-22T00:49:15.476Z,73.88
2018-11-22T00:54:37.742Z,73.76
2018-11-22T00:59:59.879Z,74.15
2018-11-22T01:05:23.005Z,73.86
2018-11-22T01:10:45.163Z,73.98
2018-11-22T01:16:07.344Z,74.06
2018-11-22T01:21:29.510Z,74.35
2018-11-22T01:26:51.660Z,74.21
2018-11-22T01:32:13.864Z,74.32
2018-11-22T01:37:36.212Z,74.31
2018-11-22T01:42:58.380Z,73.75
2018-11-22T01:48:20.526Z,73.51
2018-11-22T01:53:42.673Z,74.04
2018-11-22T01:59:04.916Z,73.97
2018-11-22T02:04:27.070Z,74.12
2018-11-22T02:09:49.211Z,74.22
2018-11-22T02:15:12.936Z,73.89
2018-11-22T02:20:35.090Z,74.05
2018-11-22T02:25:57.229Z,73.45
2018-11-22T02:31:19.387Z,73.85
2018-11-22T02:36:41.532Z,74.35
2018-11-22T02:42:03.841Z,74.32
2018-11-22T02:47:25.998Z,74.42
2018-11-22T02:52:48.427Z,74.37
2018-11-22T02:58:10.563Z,74.26
2018-11-22T03:03:32.724Z,74.50
2018-11-22T03:08:54.851Z,74.55
2018-11-22T03:14:17.004Z,73.85
2018-11-22T03:19:39.191Z,73.02
2018-11-22T03:24:41.851Z,72.84
2018-11-22T03:29:44.516Z,72.60
2018-11-22T03:34:47.144Z,72.99
2018-11-22T03:39:49.782Z,72.67
2018-11-22T03:44:52.476Z,72.20
2018-11-22T03:49:55.166Z,72.58
2018-11-22T03:54:58.085Z,72.68
2018-11-22T04:00:00.685Z,72.13
2018-11-22T04:05:03.753Z,72.66
2018-11-22T04:10:10.244Z,72.86
2018-11-22T04:15:13.480Z,73.20
2018-11-22T04:20:20.435Z,73.30
2018-11-22T04:25:23.481Z,72.85
2018-11-22T04:30:27.643Z,73.18
2018-11-22T04:35:31.122Z,72.06
2018-11-22T04:40:33.755Z,71.52
2018-11-22T04:45:36.414Z,71.74
2018-11-22T04:50:39.413Z,72.33
2018-11-22T04:55:42.043Z,72.16
2018-11-22T05:00:44.684Z,72.09
2018-11-22T05:05:47.400Z,72.79
2018-11-22T05:10:50.084Z,71.81
2018-11-22T05:15:52.772Z,72.29
2018-11-22T05:20:55.472Z,72.67
2018-11-22T05:25:58.115Z,72.47
2018-11-22T05:31:00.729Z,72.92
2018-11-22T05:36:03.640Z,73.56
2018-11-22T05:41:06.275Z,73.49
2018-11-22T05:46:11.995Z,73.24
2018-11-22T05:51:14.705Z,73.82
2018-11-22T05:56:17.323Z,74.15
2018-11-22T06:01:20.027Z,73.92
2018-11-22T06:06:22.647Z,73.60
2018-11-22T06:11:25.297Z,73.30
2018-11-22T06:16:27.932Z,73.52
2018-11-22T06:21:30.562Z,73.81
2018-11-22T06:26:33.188Z,73.78
2018-11-22T06:31:35.807Z,74.03
2018-11-22T06:36:38.503Z,74.21
2018-11-22T06:41:41.143Z,74.12
2018-11-22T06:46:43.778Z,74.06
2018-11-22T06:51:46.387Z,74.19
2018-11-22T06:56:49.000Z,74.11
2018-11-22T07:01:51.635Z,74.22
2018-11-22T07:06:54.285Z,74.20
2018-11-22T07:11:56.933Z,74.33
2018-11-22T07:16:59.625Z,74.37
2018-11-22T07:22:02.305Z,74.62
2018-11-22T07:27:05.055Z,74.90
2018-11-22T07:32:07.923Z,74.89
2018-11-22T07:37:10.620Z,74.64
2018-11-22T07:42:13.355Z,73.54
2018-11-22T07:47:16.089Z,73.01
2018-11-22T07:52:18.744Z,72.47
2018-11-22T07:57:21.381Z,71.52
2018-11-22T08:02:23.996Z,70.81
2018-11-22T08:07:26.612Z,70.92
2018-11-22T08:12:29.266Z,70.44
2018-11-22T08:17:31.905Z,69.80
2018-11-22T08:22:34.541Z,68.85
2018-11-22T08:27:37.176Z,68.37
2018-11-22T08:32:39.776Z,68.21
2018-11-22T08:37:42.431Z,67.37
2018-11-22T08:42:45.458Z,66.24
2018-11-22T08:47:48.118Z,64.96
2018-11-22T08:52:51.969Z,65.33
2018-11-22T08:57:54.598Z,65.48
2018-11-22T09:02:57.759Z,64.37
2018-11-22T09:08:00.357Z,64.33
2018-11-22T09:13:03.472Z,63.27
2018-11-22T09:18:06.077Z,61.66
2018-11-22T09:23:28.238Z,62.62
2018-11-22T09:28:50.397Z,61.74
2018-11-22T09:34:12.542Z,63.42
2018-11-22T09:39:34.699Z,64.06
2018-11-22T09:44:57.157Z,63.68
2018-11-22T09:50:20.030Z,63.67
2018-11-22T09:55:42.177Z,62.49
2018-11-22T10:01:04.536Z,62.32
2018-11-22T10:06:09.177Z,62.40
2018-11-22T10:11:11.811Z,61.30
2018-11-22T10:16:14.472Z,60.90
2018-11-22T10:21:17.072Z,59.70
2018-11-22T10:26:19.706Z,60.44
2018-11-22T10:31:22.325Z,59.53
2018-11-22T10:36:25.196Z,59.92
2018-11-22T10:41:27.893Z,59.90
2018-11-22T10:46:30.573Z,58.68
2018-11-22T10:51:33.343Z,59.46
2018-11-22T10:56:36.020Z,58.15
2018-11-22T11:01:56.842Z,58.89
2018-11-22T11:07:17.699Z,59.44
2018-11-22T11:12:25.484Z,58.83
2018-11-22T11:17:23.007Z,58.86
2018-11-22T11:22:25.769Z,58.72
2018-11-22T11:27:28.412Z,58.31
2018-11-22T11:32:31.105Z,59.13
2018-11-22T11:37:33.830Z,58.81
2018-11-22T11:42:36.476Z,57.77
2018-11-22T11:47:39.342Z,57.10
2018-11-22T11:52:41.972Z,57.73
2018-11-22T11:57:45.239Z,58.27
2018-11-22T12:02:48.256Z,57.49
2018-11-22T12:07:51.344Z,58.09
2018-11-22T12:12:53.990Z,58.57
2018-11-22T12:17:56.619Z,58.27
2018-11-22T12:22:59.332Z,57.04
2018-11-22T12:28:02.569Z,57.65
2018-11-22T12:33:05.975Z,57.92
2018-11-22T12:38:27.143Z,57.31
2018-11-22T12:43:29.915Z,58.10
2018-11-22T12:48:32.558Z,57.68
2018-11-22T12:53:35.186Z,57.47
2018-11-22T12:58:37.858Z,58.26
2018-11-22T13:03:40.651Z,58.13
2018-11-22T13:08:43.340Z,57.81
2018-11-22T13:13:46.168Z,57.63
2018-11-22T13:18:48.848Z,57.37
2018-11-22T13:23:51.598Z,58.04
2018-11-22T13:28:54.275Z,57.48
2018-11-22T13:33:57.003Z,57.75
2018-11-22T13:38:59.715Z,58.24
2018-11-22T13:44:02.433Z,57.74
2018-11-22T13:49:05.348Z,57.35
2018-11-22T13:54:08.013Z,57.67
2018-11-22T13:59:10.639Z,57.68
2018-11-22T14:04:13.293Z,56.73
2018-11-22T14:09:15.987Z,56.83
2018-11-22T16:10:33.112Z,69.58
2018-11-22T16:15:55.304Z,70.12
2018-11-22T16:21:17.488Z,70.42
2018-11-22T16:26:20.200Z,70.61
2018-11-22T16:31:42.375Z,70.90
2018-11-22T16:37:04.612Z,70.90
2018-11-22T16:42:26.785Z,71.02
2018-11-22T16:47:49.023Z,71.58
2018-11-22T16:53:11.204Z,71.93
2018-11-22T16:58:34.214Z,72.41
2018-11-22T17:03:55.594Z,72.45
2018-11-22T17:09:17.783Z,72.59
2018-11-22T17:14:39.976Z,72.87
2018-11-22T17:20:02.149Z,73.14
2018-11-22T17:25:25.689Z,72.99
2018-11-22T17:30:47.883Z,73.64
2018-11-22T17:36:10.087Z,74.34
2018-11-22T17:41:32.312Z,74.21
2018-11-22T17:46:54.488Z,74.67
2018-11-22T17:52:16.687Z,74.84
2018-11-22T17:57:39.105Z,74.97
2018-11-22T18:03:02.271Z,75.21
2018-11-22T18:08:24.459Z,75.08
2018-11-22T18:13:46.645Z,75.67
2018-11-22T18:19:08.846Z,75.74
2018-11-22T18:24:31.077Z,76.41
2018-11-22T18:29:53.462Z,76.56
2018-11-22T18:35:15.887Z,76.89
2018-11-22T18:40:39.589Z,76.99
2018-11-22T18:46:01.847Z,76.95
2018-11-22T18:51:24.048Z,75.38
2018-11-22T18:56:46.276Z,76.04
2018-11-22T19:02:08.648Z,76.40
2018-11-22T19:07:31.130Z,76.97
2018-11-22T19:12:54.628Z,76.69
2018-11-22T19:18:17.173Z,77.05
2018-11-22T19:23:39.404Z,76.96
2018-11-22T19:29:01.625Z,77.08
2018-11-22T19:34:23.888Z,77.57
2018-11-22T19:39:46.092Z,78.24
2018-11-22T19:45:09.850Z,78.37
2018-11-22T19:50:32.460Z,78.62
2018-11-22T19:55:54.699Z,78.86
2018-11-22T20:01:16.921Z,78.62
2018-11-22T20:06:39.403Z,78.52
2018-11-22T20:12:01.642Z,79.28
2018-11-22T20:17:04.778Z,79.23
2018-11-22T20:22:07.548Z,78.00
2018-11-22T20:27:10.264Z,77.93
2018-11-22T20:32:13.000Z,77.93
2018-11-22T20:37:15.720Z,78.25
2018-11-22T20:42:18.478Z,78.57
2018-11-22T20:47:21.197Z,78.84
2018-11-22T20:52:23.982Z,79.14
2018-11-22T20:57:26.732Z,79.39
2018-11-22T21:02:29.489Z,79.09
2018-11-22T21:07:32.189Z,79.24
2018-11-22T21:12:34.854Z,79.67
2018-11-22T21:17:37.729Z,79.15
2018-11-22T21:22:40.507Z,79.59
2018-11-22T21:27:43.476Z,79.50
2018-11-22T21:32:47.210Z,79.15
2018-11-22T21:37:50.851Z,78.92
2018-11-22T21:42:53.579Z,79.47
2018-11-22T21:47:56.439Z,79.69
2018-11-22T21:52:59.093Z,79.48
2018-11-22T21:58:02.160Z,79.86
2018-11-22T22:03:06.774Z,80.27
2018-11-22T22:08:09.461Z,80.03
2018-11-22T22:13:12.249Z,79.83
2018-11-22T22:18:21.025Z,79.47
2018-11-22T22:23:17.601Z,79.79
2018-11-22T22:28:20.261Z,79.68
2018-11-22T22:33:23.122Z,79.81
2018-11-22T22:38:25.859Z,79.36
2018-11-22T22:43:28.564Z,79.73
2018-11-22T22:48:31.294Z,79.66
2018-11-22T22:53:33.953Z,80.02
2018-11-22T22:58:36.660Z,80.37
2018-11-22T23:03:39.330Z,80.63
2018-11-22T23:08:42.633Z,80.58
2018-11-22T23:13:45.518Z,80.31
2018-11-22T23:18:48.274Z,80.37
2018-11-22T23:23:50.996Z,80.40
2018-11-22T23:28:53.684Z,80.25
2018-11-22T23:33:56.344Z,80.33
2018-11-22T23:38:59.134Z,80.71
2018-11-22T23:44:01.852Z,80.51
2018-11-22T23:49:04.581Z,80.50
2018-11-22T23:54:07.228Z,80.48
2018-11-22T23:59:09.870Z,80.49
